Arthur Maersk — OXJH2 — position and weather

sailwx.info

Track history (hours):
 
Tides and Currents Weather Stations Pressure Air Temp Water Temp Dewpoint Dewpoint Depression Visibility Wind Speed Wind Dir Waves Ship Positions

Arthur Maersk

Last reported at 2014-Dec-09 17:25 UTC. Time now 2014-Dec-20 15:08 UTC.
Position N 36°30' E 014°27'.
Warning: this ship's position is 10 days out of date.

Length 352 m; draft 12.9 m.

Type: Cargo ship. MMSI: 220221000.

Date/timePositionNaut miles runAvg speedWind from/ knotsBaromVisibWave heightAir tempDewpointWater temp
2014-Dec-09 17:25N 36°30' E 014°27'1821.4
2014-Dec-09 16:34N 36°36' E 014°06'2121.4
2014-Dec-09 15:33N 36°42' E 013°40'91721.8
2014-Dec-07 21:34N 35°59' W 005°17'2922.2
2014-Dec-07 20:14N 35°55' W 005°53'92118.8
2014-Dec-05 19:12N 38°42' W 024°53'1218.4
2014-Dec-05 18:34N 38°38' W 025°07'1918.8
2014-Dec-05 17:33N 38°33' W 025°30'1919.1
2014-Dec-05 16:33N 38°28' W 025°53'1919.0
2014-Dec-05 15:33N 38°23' W 026°17'1919.0
2014-Dec-05 14:33N 38°20' W 026°41'1919.2
2014-Dec-05 13:34N 38°19' W 027°05'2019.7
2014-Dec-05 12:33N 38°18' W 027°30'2019.7
2014-Dec-05 11:33N 38°17' W 027°55'2020.0
2014-Dec-05 10:33N 38°15' W 028°21'2020.1
2014-Dec-05 09:34N 38°14' W 028°46'2019.8
2014-Dec-05 08:33N 38°13' W 029°11'1919.5
2014-Dec-05 07:33N 38°12' W 029°36'1919.2
2014-Dec-05 06:33N 38°11' W 030°01'1919.2
2014-Dec-05 05:33N 38°09' W 030°25'1918.8
2014-Dec-05 04:33N 38°08' W 030°49'  
2014-Nov-29 18:16N 32°05' W 080°59'4 6.1
2014-Nov-29 17:33N 32°05' W 081°04'  
Track history (hours):
 
Tides and Currents Weather Stations Pressure Air Temp Water Temp Dewpoint Dewpoint Depression Visibility Wind Speed Wind Dir Waves Ship Positions

Arthur Maersk

Last reported at 2014-Dec-09 17:25 UTC. Time now 2014-Dec-20 15:08 UTC.
Position N 36°30' E 014°27'.
Warning: this ship's position is 10 days out of date.

Length 352 m; draft 12.9 m.

Type: Cargo ship. MMSI: 220221000.

Date/timePositionNaut miles runAvg speedWind from/ knotsBaromVisibWave heightAir tempDewpointWater temp
2014-Dec-09 17:25N 36°30' E 014°27'1821.4
2014-Dec-09 16:34N 36°36' E 014°06'2121.4
2014-Dec-09 15:33N 36°42' E 013°40'91721.8
2014-Dec-07 21:34N 35°59' W 005°17'2922.2
2014-Dec-07 20:14N 35°55' W 005°53'92118.8
2014-Dec-05 19:12N 38°42' W 024°53'1218.4
2014-Dec-05 18:34N 38°38' W 025°07'1918.8
2014-Dec-05 17:33N 38°33' W 025°30'1919.1
2014-Dec-05 16:33N 38°28' W 025°53'1919.0
2014-Dec-05 15:33N 38°23' W 026°17'1919.0
2014-Dec-05 14:33N 38°20' W 026°41'1919.2
2014-Dec-05 13:34N 38°19' W 027°05'2019.7
2014-Dec-05 12:33N 38°18' W 027°30'2019.7
2014-Dec-05 11:33N 38°17' W 027°55'2020.0
2014-Dec-05 10:33N 38°15' W 028°21'2020.1
2014-Dec-05 09:34N 38°14' W 028°46'2019.8
2014-Dec-05 08:33N 38°13' W 029°11'1919.5
2014-Dec-05 07:33N 38°12' W 029°36'1919.2
2014-Dec-05 06:33N 38°11' W 030°01'1919.2
2014-Dec-05 05:33N 38°09' W 030°25'1918.8
2014-Dec-05 04:33N 38°08' W 030°49'  
2014-Nov-29 18:16N 32°05' W 080°59'4 6.1
2014-Nov-29 17:33N 32°05' W 081°04'  

Dump ship's entire track history